Time;durP1;ratioP1;P1;durP2;ratioP2;P2;SDS_P1;SDS_P2;PMS_P1;PMS_P2;Temp;Humidity;BMP_temperature;BMP_pressure;BME280_temperature;BME280_humidity;BME280_pressure;Samples;Min_cycle;Max_cycle;Signal;HPM_P1;HPM_P2
2021/09/22 00:02:09;;;;;;;;;28.25;26.25;;;;;17.15;55.10;102619.06;5058294;28;45444;-78
2021/09/22 00:04:35;;;;;;;;;30.50;24.75;;;;;17.05;54.94;102606.38;5056664;28;45678;-77
2021/09/22 00:07:01;;;;;;;;;32.50;25.75;;;;;17.09;54.92;102610.91;5058629;28;45342;-77
2021/09/22 00:09:28;;;;;;;;;27.00;23.50;;;;;17.10;54.90;102612.72;5059251;28;45500;-76
2021/09/22 00:11:54;;;;;;;;;30.25;24.75;;;;;17.15;55.00;102613.84;5058800;28;46256;-77
2021/09/22 00:14:19;;;;;;;;;37.75;28.75;;;;;17.14;54.78;102616.38;5058444;28;45355;-77
2021/09/22 00:16:45;;;;;;;;;29.25;25.00;;;;;16.97;54.95;102595.56;5058179;28;45288;-79
2021/09/22 00:19:11;;;;;;;;;32.25;27.25;;;;;17.09;55.07;102612.66;5057307;28;45624;-77
2021/09/22 00:21:37;;;;;;;;;29.50;26.00;;;;;17.08;55.09;102616.09;5062149;28;45339;-80
2021/09/22 00:24:03;;;;;;;;;32.75;24.50;;;;;17.01;55.11;102605.31;5065338;28;45215;-79
2021/09/22 00:26:28;;;;;;;;;34.50;31.75;;;;;17.05;55.49;102611.63;5058208;28;45259;-80
2021/09/22 00:28:54;;;;;;;;;35.75;30.25;;;;;17.02;55.77;102616.69;5058963;28;45575;-80
2021/09/22 00:31:20;;;;;;;;;29.75;26.75;;;;;17.01;56.76;102631.47;5057911;28;45453;-79
2021/09/22 00:33:45;;;;;;;;;27.75;26.75;;;;;16.87;57.27;102612.50;5057698;28;45352;-81
2021/09/22 00:36:11;;;;;;;;;33.25;28.50;;;;;16.88;58.32;102626.47;5056593;28;45338;-78
2021/09/22 00:38:37;;;;;;;;;28.50;26.25;;;;;16.71;58.42;102595.16;5057795;28;45350;-78
2021/09/22 00:41:03;;;;;;;;;29.25;29.25;;;;;16.65;59.18;102592.25;5057432;28;46470;-79
2021/09/22 00:43:28;;;;;;;;;31.25;24.50;;;;;16.65;58.83;102601.81;5057614;28;45500;-77
2021/09/22 00:45:54;;;;;;;;;35.25;30.00;;;;;16.67;59.46;102608.94;5057970;28;45325;-77
2021/09/22 00:48:21;;;;;;;;;34.75;30.00;;;;;16.57;59.23;102601.47;5058155;28;45270;-79
2021/09/22 00:50:49;;;;;;;;;33.75;29.25;;;;;16.58;59.12;102603.22;5057193;28;45424;-80
2021/09/22 00:53:15;;;;;;;;;32.50;27.75;;;;;16.55;59.24;102600.47;5057477;28;45963;-79
2021/09/22 00:55:41;;;;;;;;;40.25;31.75;;;;;16.55;59.34;102603.97;5057300;28;45331;-79
2021/09/22 00:58:08;;;;;;;;;34.00;31.25;;;;;16.54;59.77;102590.84;5057864;28;45585;-79
2021/09/22 01:00:37;;;;;;;;;32.00;28.00;;;;;16.51;59.90;102591.59;5057090;28;45478;-78
2021/09/22 01:03:04;;;;;;;;;37.50;30.75;;;;;16.45;59.77;102593.88;5062176;28;45180;-80
2021/09/22 01:05:30;;;;;;;;;33.00;31.75;;;;;16.36;59.43;102578.63;5059938;28;45255;-80
2021/09/22 01:07:56;;;;;;;;;44.00;29.50;;;;;16.42;59.68;102590.22;5056906;28;45552;-79
2021/09/22 01:10:22;;;;;;;;;32.75;28.25;;;;;16.38;60.08;102590.06;5058793;28;45434;-79
2021/09/22 01:12:48;;;;;;;;;38.25;31.75;;;;;16.39;59.60;102593.59;5055680;28;45382;-79
2021/09/22 01:15:27;;;;;;;;;42.00;35.25;;;;;16.37;59.88;102598.72;5057584;28;45398;-78
2021/09/22 01:17:54;;;;;;;;;31.75;30.50;;;;;16.23;59.71;102578.88;5057780;28;45180;-79
2021/09/22 01:20:19;;;;;;;;;33.50;28.75;;;;;16.15;60.11;102557.56;5056973;28;46048;-79
2021/09/22 01:22:45;;;;;;;;;34.75;30.25;;;;;16.26;60.20;102581.63;5056736;28;45429;-78
2021/09/22 01:25:12;;;;;;;;;32.75;31.25;;;;;16.16;59.65;102569.84;5056528;28;45315;-79
2021/09/22 01:27:46;;;;;;;;;33.25;30.50;;;;;16.13;60.31;102577.50;5056670;28;45542;-79
2021/09/22 01:30:12;;;;;;;;;32.00;25.75;;;;;16.02;60.24;102563.91;5056849;28;46141;-78
2021/09/22 01:32:46;;;;;;;;;38.25;31.75;;;;;16.02;60.16;102573.44;5056873;28;45331;-82
2021/09/22 01:35:11;;;;;;;;;36.50;32.50;;;;;16.03;60.46;102594.44;5057245;28;45411;-81
2021/09/22 01:37:37;;;;;;;;;40.75;29.25;;;;;15.99;60.43;102589.88;5056904;28;45464;-82
2021/09/22 01:40:03;;;;;;;;;38.25;32.25;;;;;15.91;60.58;102579.03;5056642;28;46057;-81
2021/09/22 01:42:29;;;;;;;;;37.25;33.00;;;;;15.91;60.25;102584.25;5061258;28;45334;-79
2021/09/22 01:44:54;;;;;;;;;33.75;29.25;;;;;15.84;60.66;102575.97;5065454;28;45421;-82
2021/09/22 01:47:20;;;;;;;;;33.50;30.00;;;;;15.85;60.99;102585.66;5073719;28;45575;-81
2021/09/22 01:49:45;;;;;;;;;35.00;31.75;;;;;15.82;60.60;102580.25;5056967;28;45363;-81
2021/09/22 01:52:11;;;;;;;;;37.00;32.25;;;;;15.78;60.78;102573.94;5056710;28;45235;-81
2021/09/22 01:54:37;;;;;;;;;35.50;31.75;;;;;15.84;60.58;102586.44;5056714;28;45427;-80
2021/09/22 01:57:02;;;;;;;;;33.25;28.00;;;;;15.82;60.98;102582.88;5057634;28;45274;-81
2021/09/22 01:59:28;;;;;;;;;33.25;31.75;;;;;15.76;60.58;102578.22;5054840;28;46225;-81
2021/09/22 02:01:54;;;;;;;;;39.50;31.25;;;;;15.68;60.92;102567.38;5056632;28;45221;-80
2021/09/22 02:04:19;;;;;;;;;36.25;30.00;;;;;15.72;60.85;102574.53;5056611;28;45240;-80
2021/09/22 02:06:45;;;;;;;;;41.00;32.50;;;;;15.68;61.60;102569.97;5056661;28;45386;-79
2021/09/22 02:09:10;;;;;;;;;37.75;33.25;;;;;15.68;61.11;102574.28;5056324;28;45285;-80
2021/09/22 02:11:36;;;;;;;;;40.50;33.00;;;;;15.68;60.92;102577.81;5056235;28;45418;-78
2021/09/22 02:14:01;;;;;;;;;39.00;31.00;;;;;15.67;61.32;102580.31;5056747;28;45468;-79
2021/09/22 02:16:27;;;;;;;;;35.75;30.50;;;;;15.60;61.02;102561.75;5056381;28;45537;-80
2021/09/22 02:18:53;;;;;;;;;37.00;31.50;;;;;15.66;61.45;102565.50;5056541;28;45473;-79
2021/09/22 02:21:18;;;;;;;;;42.50;34.25;;;;;15.63;61.40;102561.91;5056682;28;45378;-78
2021/09/22 02:23:44;;;;;;;;;40.00;32.00;;;;;15.59;61.28;102548.63;5057288;28;45334;-77
2021/09/22 02:26:10;;;;;;;;;39.50;30.25;;;;;15.62;61.44;102553.97;5060093;28;45471;-79
2021/09/22 02:28:35;;;;;;;;;39.50;32.00;;;;;15.60;61.29;102537.34;5061173;28;45323;-80
2021/09/22 02:31:01;;;;;;;;;41.75;32.00;;;;;15.59;61.49;102540.78;5059367;28;45729;-78
2021/09/22 02:33:26;;;;;;;;;41.50;33.50;;;;;15.59;61.63;102532.94;5057647;28;45500;-77
2021/09/22 02:35:52;;;;;;;;;41.25;31.75;;;;;15.60;61.46;102527.81;5056414;28;45219;-78
2021/09/22 02:38:18;;;;;;;;;37.25;30.00;;;;;15.62;61.66;102534.00;5057721;28;46063;-79
2021/09/22 02:40:44;;;;;;;;;37.25;30.25;;;;;15.60;61.36;102527.81;5056576;28;45236;-79
2021/09/22 02:43:10;;;;;;;;;34.00;31.00;;;;;15.60;61.77;102514.75;5056395;28;45218;-78
2021/09/22 02:45:35;;;;;;;;;34.25;31.50;;;;;15.66;61.37;102514.16;5056878;28;45319;-78
2021/09/22 02:48:01;;;;;;;;;40.25;32.00;;;;;15.65;61.57;102521.94;5056871;28;46275;-77
2021/09/22 02:50:27;;;;;;;;;38.25;32.00;;;;;15.56;61.16;102501.47;5055844;28;45356;-76
2021/09/22 02:52:52;;;;;;;;;42.00;33.00;;;;;15.62;61.18;102507.91;5056717;28;45398;-78
2021/09/22 02:55:18;;;;;;;;;38.75;32.00;;;;;15.59;61.40;102501.63;5056749;28;45574;-77
2021/09/22 02:57:44;;;;;;;;;30.50;29.50;;;;;15.61;60.88;102499.97;5055594;28;46515;-79
2021/09/22 03:00:11;;;;;;;;;41.00;33.25;;;;;15.59;61.45;102496.41;5055739;28;45399;-80
2021/09/22 03:02:38;;;;;;;;;39.00;31.75;;;;;15.54;61.82;102484.81;5055949;28;45342;-78
2021/09/22 03:05:04;;;;;;;;;42.50;33.25;;;;;15.60;61.13;102488.63;5057975;28;45523;-78
2021/09/22 03:07:30;;;;;;;;;37.25;32.00;;;;;15.62;61.62;102489.63;5058817;28;46124;-76
2021/09/22 03:09:56;;;;;;;;;36.50;32.00;;;;;15.66;61.57;102495.00;5056173;28;45383;-77
2021/09/22 03:12:21;;;;;;;;;37.25;33.50;;;;;15.63;61.16;102483.59;5055792;28;45719;-78
2021/09/22 03:14:47;;;;;;;;;37.75;31.00;;;;;15.66;61.27;102489.78;5055804;28;45449;-79
2021/09/22 03:17:12;;;;;;;;;34.25;30.25;;;;;15.67;61.49;102488.94;5055407;28;45418;-80
2021/09/22 03:19:38;;;;;;;;;41.25;32.75;;;;;15.66;61.18;102487.16;5055180;28;45335;-78
2021/09/22 03:22:04;;;;;;;;;36.00;31.50;;;;;15.62;61.54;102483.47;5055343;28;45469;-80
2021/09/22 03:24:30;;;;;;;;;35.50;31.50;;;;;15.60;61.41;102482.53;5055461;28;45405;-80
2021/09/22 03:26:56;;;;;;;;;39.75;32.75;;;;;15.55;61.26;102479.66;5055552;28;46207;-79
2021/09/22 03:29:21;;;;;;;;;33.50;31.25;;;;;15.52;61.37;102483.84;5055567;28;45263;-77
2021/09/22 03:31:47;;;;;;;;;26.75;25.75;;;;;15.52;61.36;102489.06;5055414;28;45402;-79
2021/09/22 03:34:12;;;;;;;;;36.25;31.00;;;;;15.50;61.83;102485.47;5054287;28;45620;-79
2021/09/22 03:36:38;;;;;;;;;36.25;31.25;;;;;15.52;61.17;102489.97;5054930;28;45297;-79
2021/09/22 03:39:04;;;;;;;;;35.00;32.25;;;;;15.46;61.62;102484.41;5055173;28;45339;-79
2021/09/22 03:41:30;;;;;;;;;38.75;32.00;;;;;15.45;61.82;102493.97;5057760;28;45274;-79
2021/09/22 03:43:56;;;;;;;;;40.00;32.50;;;;;15.41;61.92;102489.41;5063422;28;45566;-78
2021/09/22 03:46:22;;;;;;;;;40.25;33.50;;;;;15.38;61.43;102491.88;5057124;28;46214;-79
2021/09/22 03:48:48;;;;;;;;;29.75;27.50;;;;;15.38;61.97;102493.56;5057257;28;45711;-77
2021/09/22 03:51:13;;;;;;;;;35.00;32.25;;;;;15.30;61.38;102486.25;5058812;28;45324;-77
2021/09/22 03:53:39;;;;;;;;;33.75;30.25;;;;;15.30;61.85;102501.91;5058612;28;45434;-77
2021/09/22 03:56:04;;;;;;;;;39.00;31.75;;;;;15.27;61.83;102506.06;5058384;28;46039;-78
2021/09/22 03:58:30;;;;;;;;;35.50;29.75;;;;;15.24;61.97;102500.69;5058269;28;45322;-80
2021/09/22 04:00:56;;;;;;;;;40.50;32.00;;;;;15.21;62.03;102503.13;5058838;28;45403;-79
2021/09/22 04:03:21;;;;;;;;;38.50;31.75;;;;;15.10;61.83;102493.00;5059015;28;45503;-79
2021/09/22 04:05:47;;;;;;;;;32.50;29.25;;;;;15.19;62.30;102508.25;5058082;28;45280;-80
2021/09/22 04:08:13;;;;;;;;;35.50;31.50;;;;;15.15;61.88;102506.28;5058300;28;45236;-79
2021/09/22 04:10:38;;;;;;;;;36.25;30.50;;;;;15.16;62.22;102519.44;5058045;28;45173;-80
2021/09/22 04:13:04;;;;;;;;;30.75;26.25;;;;;15.13;62.33;102516.66;5058531;28;45362;-78
2021/09/22 04:15:30;;;;;;;;;37.75;31.50;;;;;15.10;61.90;102526.03;5057781;28;46119;-78
2021/09/22 04:17:55;;;;;;;;;36.50;29.75;;;;;15.04;62.15;102517.88;5058278;28;45342;-78
2021/09/22 04:20:21;;;;;;;;;35.00;30.25;;;;;15.06;62.24;102530.19;5059062;28;45414;-79
2021/09/22 04:22:47;;;;;;;;;35.25;30.75;;;;;15.02;62.81;102528.22;5064592;28;45636;-79
2021/09/22 04:25:12;;;;;;;;;37.50;31.50;;;;;15.01;62.08;102518.59;5061198;28;45342;-78
2021/09/22 04:27:38;;;;;;;;;35.00;30.75;;;;;15.00;62.31;102525.53;5060804;28;45388;-79
2021/09/22 04:30:07;;;;;;;;;37.75;29.00;;;;;14.95;62.30;102513.06;5058874;28;45383;-78
2021/09/22 04:32:32;;;;;;;;;33.75;31.00;;;;;14.92;62.54;102511.16;5058322;28;45433;-79
2021/09/22 04:34:58;;;;;;;;;28.75;25.00;;;;;14.96;62.43;102520.06;5056946;28;47002;-77
2021/09/22 04:37:24;;;;;;;;;36.00;30.50;;;;;14.97;62.69;102520.16;5056834;28;45233;-78
2021/09/22 04:39:52;;;;;;;;;34.75;30.25;;;;;14.96;62.75;102518.34;5057984;28;45626;-78
2021/09/22 04:42:17;;;;;;;;;34.50;30.00;;;;;14.93;62.75;102514.69;5058112;28;45393;-78
2021/09/22 04:44:43;;;;;;;;;32.25;30.00;;;;;14.82;63.06;102495.84;5056109;28;45953;-80
2021/09/22 04:47:10;;;;;;;;;38.50;29.75;;;;;14.93;62.65;102509.47;5057515;28;45770;-79
2021/09/22 04:49:36;;;;;;;;;35.25;31.25;;;;;14.84;62.44;102502.03;5057567;28;45322;-77
2021/09/22 04:52:02;;;;;;;;;37.50;32.25;;;;;14.91;62.55;102519.81;5057915;28;45723;-78
2021/09/22 04:54:28;;;;;;;;;35.75;30.75;;;;;14.93;62.53;102522.50;5057404;28;45360;-77
2021/09/22 04:56:53;;;;;;;;;40.50;33.50;;;;;14.92;63.07;102523.31;5057628;28;45243;-79
2021/09/22 04:59:19;;;;;;;;;36.50;30.25;;;;;14.86;62.45;102510.84;5057626;28;45217;-79
2021/09/22 05:01:47;;;;;;;;;37.75;30.50;;;;;14.88;62.76;102521.34;5063800;28;45667;-79
2021/09/22 05:04:13;;;;;;;;;42.75;32.75;;;;;14.86;62.63;102522.16;5060219;28;45421;-79
2021/09/22 05:06:38;;;;;;;;;33.50;27.00;;;;;14.89;62.94;102523.16;5057800;28;45432;-79
2021/09/22 05:09:04;;;;;;;;;39.50;32.50;;;;;14.92;62.66;102531.16;5056424;28;45489;-79
2021/09/22 05:11:30;;;;;;;;;42.25;34.25;;;;;14.93;62.48;102523.41;5057587;28;45387;-79
2021/09/22 05:13:56;;;;;;;;;39.75;32.50;;;;;14.93;63.18;102517.31;5057887;28;46626;-79
2021/09/22 05:16:22;;;;;;;;;41.50;32.50;;;;;14.86;62.38;102508.25;5057751;28;45308;-79
2021/09/22 05:18:48;;;;;;;;;35.00;31.25;;;;;14.89;62.60;102512.72;5057545;28;45314;-79
2021/09/22 05:21:14;;;;;;;;;36.50;32.00;;;;;14.98;62.58;102524.56;5058369;28;45304;-79
2021/09/22 05:23:39;;;;;;;;;40.50;32.50;;;;;14.75;62.58;102486.78;5057124;28;45265;-79
2021/09/22 05:26:05;;;;;;;;;38.50;30.00;;;;;14.94;62.68;102511.28;5057534;28;45338;-79
2021/09/22 05:28:31;;;;;;;;;45.75;34.00;;;;;14.94;62.26;102517.38;5057261;28;45305;-79
2021/09/22 05:30:56;;;;;;;;;42.50;33.75;;;;;14.84;62.42;102500.34;5057604;28;45499;-79
2021/09/22 05:33:22;;;;;;;;;42.00;33.00;;;;;14.86;62.44;102505.63;5057369;28;46124;-79
2021/09/22 05:35:48;;;;;;;;;39.50;30.75;;;;;14.91;61.96;102517.19;5055910;28;45557;-78
2021/09/22 05:38:15;;;;;;;;;36.00;32.00;;;;;14.89;61.82;102518.84;5057538;28;45248;-79
2021/09/22 05:40:41;;;;;;;;;42.25;33.00;;;;;14.89;62.12;102521.47;5059736;28;45398;-79
2021/09/22 05:43:07;;;;;;;;;45.50;34.50;;;;;14.74;61.85;102499.75;5057694;28;46821;-80
2021/09/22 05:45:33;;;;;;;;;38.75;32.00;;;;;14.87;61.51;102528.28;5057851;28;45298;-79
2021/09/22 05:47:58;;;;;;;;;44.75;35.00;;;;;14.86;61.58;102518.66;5058434;28;45226;-82
2021/09/22 05:50:24;;;;;;;;;43.75;33.50;;;;;14.93;61.59;102522.50;5058502;28;45422;-78
2021/09/22 05:52:50;;;;;;;;;41.50;34.50;;;;;14.81;61.20;102505.38;5058266;27;45458;-81
2021/09/22 05:55:18;;;;;;;;;41.00;34.25;;;;;14.79;61.78;102496.56;5056299;28;45953;-77
2021/09/22 05:57:44;;;;;;;;;36.50;32.00;;;;;14.96;61.74;102530.47;5054145;28;45560;-78
2021/09/22 06:00:10;;;;;;;;;41.50;32.25;;;;;14.96;61.58;102531.41;5056153;28;45588;-83
2021/09/22 06:02:39;;;;;;;;;37.00;29.50;;;;;14.94;61.94;102537.34;5056906;28;45442;-83
2021/09/22 06:05:09;;;;;;;;;38.00;31.25;;;;;14.93;61.74;102528.63;5060948;28;45362;-80
2021/09/22 06:07:37;;;;;;;;;41.75;32.75;;;;;15.00;62.16;102543.81;5056330;28;45446;-85
2021/09/22 06:10:04;;;;;;;;;39.25;30.75;;;;;15.00;61.96;102533.38;5058798;28;45294;-88
2021/09/22 06:12:32;;;;;;;;;39.00;32.75;;;;;14.86;61.78;102514.34;5054995;28;46925;-84
2021/09/22 06:14:58;;;;;;;;;39.25;31.75;;;;;14.67;61.91;102475.03;5056811;28;45948;-83
2021/09/22 06:17:23;;;;;;;;;36.75;31.25;;;;;14.96;62.12;102526.19;5058537;28;45488;-84
2021/09/22 06:19:49;;;;;;;;;44.75;33.25;;;;;15.01;62.51;102534.25;5060428;28;45468;-83
2021/09/22 06:22:22;;;;;;;;;46.25;35.50;;;;;15.02;62.58;102544.75;5060785;28;45886;-82
2021/09/22 06:24:48;;;;;;;;;44.50;34.00;;;;;14.94;62.20;102524.31;5058025;28;45361;-79
2021/09/22 06:27:13;;;;;;;;;38.50;33.00;;;;;14.96;62.28;102526.19;5056966;28;45685;-80
2021/09/22 06:29:39;;;;;;;;;36.00;32.50;;;;;15.07;62.26;102552.84;5056239;28;45587;-81
2021/09/22 06:32:05;;;;;;;;;45.00;35.00;;;;;15.08;62.33;102549.41;5055858;28;45972;-79
2021/09/22 06:34:30;;;;;;;;;44.75;33.00;;;;;15.07;61.57;102542.41;5055945;28;45224;-81
2021/09/22 06:36:56;;;;;;;;;39.75;33.00;;;;;15.05;61.77;102541.44;5056673;28;45308;-83
2021/09/22 06:39:22;;;;;;;;;39.00;33.00;;;;;15.07;61.59;102533.69;5057231;28;45464;-80
2021/09/22 06:41:47;;;;;;;;;43.75;34.00;;;;;15.09;61.86;102535.56;5055328;28;45484;-83
2021/09/22 06:44:13;;;;;;;;;35.50;32.75;;;;;15.17;61.25;102544.69;5056577;28;45504;-79
2021/09/22 06:46:38;;;;;;;;;40.50;33.00;;;;;15.23;60.56;102535.41;5058030;28;45600;-80
2021/09/22 06:49:04;;;;;;;;;41.25;33.50;;;;;15.28;60.60;102540.06;5059992;28;45508;-78
2021/09/22 06:51:30;;;;;;;;;39.25;31.25;;;;;15.24;60.46;102532.88;5055690;28;46602;-82
2021/09/22 06:53:58;;;;;;;;;35.25;29.00;;;;;15.31;59.60;102547.16;5055189;28;45572;-80
2021/09/22 06:56:25;;;;;;;;;41.25;32.00;;;;;15.29;59.66;102556.59;5057401;28;45507;-79
2021/09/22 06:58:51;;;;;;;;;35.50;30.75;;;;;15.19;59.32;102536.97;5056927;28;45480;-79
2021/09/22 07:01:17;;;;;;;;;37.50;31.75;;;;;15.25;59.32;102541.63;5056634;28;46124;-79
2021/09/22 07:03:43;;;;;;;;;32.00;29.50;;;;;15.27;59.23;102551.31;5055344;28;45390;-80
2021/09/22 07:06:11;;;;;;;;;39.50;33.00;;;;;15.29;59.13;102561.81;5055878;28;45292;-78
2021/09/22 07:08:37;;;;;;;;;41.00;33.25;;;;;15.25;59.50;102550.31;5070558;27;45306;-80
2021/09/22 07:11:03;;;;;;;;;36.00;31.75;;;;;15.28;58.94;102560.94;5055561;28;45521;-81
2021/09/22 07:13:28;;;;;;;;;37.00;30.25;;;;;15.22;59.49;102549.25;5055241;28;45496;-79
2021/09/22 07:15:54;;;;;;;;;40.75;33.75;;;;;15.22;58.99;102552.78;5057209;28;45661;-81
2021/09/22 07:18:20;;;;;;;;;32.00;29.75;;;;;15.26;59.36;102561.69;5056186;28;45555;-81
2021/09/22 07:20:47;;;;;;;;;38.00;30.00;;;;;15.26;59.28;102564.28;5055116;28;45444;-81
2021/09/22 07:23:13;;;;;;;;;31.25;29.75;;;;;15.28;59.02;102571.38;5055474;28;45239;-79
2021/09/22 07:25:38;;;;;;;;;38.25;30.00;;;;;15.30;59.43;102564.53;5057962;28;45316;-79
2021/09/22 07:28:04;;;;;;;;;36.75;30.50;;;;;15.28;59.13;102565.28;5058485;28;45587;-82
2021/09/22 07:30:29;;;;;;;;;40.25;34.75;;;;;15.36;58.74;102571.78;5058868;28;45291;-80
2021/09/22 07:32:59;;;;;;;;;39.75;33.00;;;;;15.40;59.32;102573.72;5057653;28;45386;-81
2021/09/22 07:35:25;;;;;;;;;43.75;34.00;;;;;15.40;59.27;102573.72;5061652;28;45428;-78
2021/09/22 07:37:51;;;;;;;;;40.75;33.25;;;;;15.43;59.24;102571.28;5059879;28;45239;-79
2021/09/22 07:40:18;;;;;;;;;42.25;31.00;;;;;15.42;59.17;102576.44;5058504;28;45285;-79
2021/09/22 07:42:44;;;;;;;;;41.50;32.00;;;;;15.46;59.02;102584.50;5057762;28;45364;-79
2021/09/22 07:45:12;;;;;;;;;41.50;34.25;;;;;15.50;59.39;102582.97;5058171;28;45315;-79
2021/09/22 07:47:38;;;;;;;;;31.75;29.50;;;;;15.52;58.95;102586.56;5058255;28;45436;-78
2021/09/22 07:50:08;;;;;;;;;39.25;32.50;;;;;15.49;59.01;102591.59;5058049;28;46499;-80
2021/09/22 07:52:35;;;;;;;;;41.00;33.25;;;;;15.47;58.52;102588.00;5057896;28;45211;-79
2021/09/22 07:55:02;;;;;;;;;42.50;33.50;;;;;15.50;58.63;102579.44;5058303;28;45772;-80
2021/09/22 07:57:28;;;;;;;;;33.75;31.25;;;;;15.51;59.29;102570.78;5058590;28;45528;-79
2021/09/22 07:59:55;;;;;;;;;38.25;30.75;;;;;15.59;59.13;102572.13;5058319;28;45499;-79
2021/09/22 08:02:21;;;;;;;;;44.25;35.25;;;;;15.59;58.65;102572.13;5058028;28;45324;-78
2021/09/22 08:04:47;;;;;;;;;41.50;32.75;;;;;15.61;58.58;102566.16;5057829;28;45335;-78
2021/09/22 08:07:12;;;;;;;;;36.75;32.50;;;;;15.70;58.92;102576.19;5058191;28;45521;-81
2021/09/22 08:09:38;;;;;;;;;37.00;31.25;;;;;15.72;58.27;102576.25;5057627;28;46145;-80
2021/09/22 08:12:04;;;;;;;;;42.25;32.25;;;;;15.74;58.61;102577.25;5057883;28;45218;-78
2021/09/22 08:14:31;;;;;;;;;35.00;31.00;;;;;15.79;58.10;102578.34;5054821;28;45514;-78
2021/09/22 08:16:58;;;;;;;;;38.00;31.50;;;;;15.83;57.92;102584.63;5058010;28;45546;-78
2021/09/22 08:19:25;;;;;;;;;38.75;32.25;;;;;15.78;58.20;102576.56;5057900;28;45981;-78
2021/09/22 08:21:51;;;;;;;;;36.25;30.75;;;;;15.78;58.14;102579.16;5057756;28;45404;-78
2021/09/22 08:24:17;;;;;;;;;35.50;32.00;;;;;15.84;58.38;102581.19;5056305;28;45559;-78
2021/09/22 08:26:43;;;;;;;;;38.50;31.00;;;;;15.92;57.84;102587.78;5057936;28;45515;-79
2021/09/22 08:29:09;;;;;;;;;37.25;29.75;;;;;15.97;57.95;102582.78;5057490;28;45984;-79
2021/09/22 08:31:35;;;;;;;;;42.25;31.75;;;;;16.00;57.87;102582.91;5057469;28;45392;-79
2021/09/22 08:34:01;;;;;;;;;40.25;33.50;;;;;16.05;57.49;102587.56;5057671;28;45326;-79
2021/09/22 08:36:26;;;;;;;;;35.75;31.50;;;;;16.06;57.68;102580.63;5055857;28;45925;-78
2021/09/22 08:38:52;;;;;;;;;42.75;31.25;;;;;16.15;57.70;102591.56;5057763;28;45409;-78
2021/09/22 08:41:18;;;;;;;;;47.00;34.75;;;;;16.18;57.60;102580.34;5057402;28;45330;-78
2021/09/22 08:43:43;;;;;;;;;43.25;35.00;;;;;16.20;57.37;102587.44;5057375;28;45324;-82
2021/09/22 08:46:10;;;;;;;;;40.50;34.75;;;;;16.22;57.40;102591.03;5056827;28;45436;-80
2021/09/22 08:48:36;;;;;;;;;40.50;33.25;;;;;16.18;56.97;102580.34;5056910;28;45440;-82
2021/09/22 08:51:02;;;;;;;;;44.00;34.50;;;;;16.27;56.85;102600.81;5056693;28;45838;-77
2021/09/22 08:53:28;;;;;;;;;43.50;34.00;;;;;16.28;57.11;102602.63;5057128;28;45316;-80
2021/09/22 08:55:53;;;;;;;;;38.25;32.75;;;;;16.25;57.07;102585.97;5056423;28;45510;-82
2021/09/22 08:58:19;;;;;;;;;42.25;33.75;;;;;16.30;57.14;102593.16;5057015;28;45868;-82
2021/09/22 09:00:47;;;;;;;;;35.00;29.25;;;;;16.33;57.45;102585.44;5055338;28;45264;-81
2021/09/22 09:03:40;;;;;;;;;38.75;31.75;;;;;16.35;56.71;102595.19;5057200;28;45402;-82
2021/09/22 09:06:20;;;;;;;;;42.75;34.50;;;;;16.40;56.85;102604.13;5057327;28;45242;-80
2021/09/22 09:08:46;;;;;;;;;40.25;32.75;;;;;16.44;56.28;102596.44;5056566;28;45378;-80
2021/09/22 09:11:12;;;;;;;;;34.50;30.00;;;;;16.44;56.69;102594.72;5057059;28;45339;-78
2021/09/22 09:13:45;;;;;;;;;40.00;32.25;;;;;16.48;56.28;102588.81;5055462;28;45376;-81
2021/09/22 09:16:16;;;;;;;;;38.50;32.75;;;;;16.51;55.98;102590.69;5057241;28;45622;-82
2021/09/22 09:18:49;;;;;;;;;33.75;30.50;;;;;16.54;56.11;102588.22;5056550;28;46189;-81
2021/09/22 09:21:15;;;;;;;;;35.25;31.25;;;;;16.59;56.00;102594.56;5056786;28;45752;-79
2021/09/22 09:23:59;;;;;;;;;36.75;31.00;;;;;16.62;56.13;102592.09;5056726;27;45334;-78
2021/09/22 09:26:32;;;;;;;;;39.00;31.00;;;;;16.67;56.23;102587.09;5057744;28;45263;-81
2021/09/22 09:28:59;;;;;;;;;36.50;32.00;;;;;16.70;55.89;102584.63;5055292;28;46827;-79
2021/09/22 09:31:32;;;;;;;;;37.50;33.25;;;;;16.77;55.81;102591.94;5056985;28;45243;-78
2021/09/22 09:34:03;;;;;;;;;48.25;35.50;;;;;16.80;55.25;102585.94;5056894;28;45193;-79
2021/09/22 09:36:45;;;;;;;;;36.00;29.25;;;;;16.81;55.22;102572.97;5056703;28;45477;-79
2021/09/22 09:39:25;;;;;;;;;36.75;30.50;;;;;16.82;55.29;102576.47;5056906;28;45345;-80
2021/09/22 09:41:54;;;;;;;;;39.00;32.50;;;;;16.86;55.03;102581.91;5056118;28;45325;-78
2021/09/22 09:44:22;;;;;;;;;32.75;29.00;;;;;16.90;55.17;102572.47;5054540;28;45242;-78
2021/09/22 09:46:49;;;;;;;;;39.00;31.25;;;;;16.93;54.80;102569.13;5063544;28;45605;-77
2021/09/22 09:49:17;;;;;;;;;33.00;29.75;;;;;16.98;54.16;102576.41;5056220;28;45398;-78
2021/09/22 09:51:54;;;;;;;;;39.75;31.00;;;;;17.02;54.38;102567.88;5056065;28;45338;-77
2021/09/22 09:54:33;;;;;;;;;40.75;33.25;;;;;17.08;54.17;102571.59;5056368;28;45291;-78
2021/09/22 09:57:20;;;;;;;;;37.00;31.25;;;;;17.15;53.52;102571.06;5056682;28;45394;-77
2021/09/22 09:59:50;;;;;;;;;32.50;29.25;;;;;17.17;53.60;102562.44;5055628;28;46687;-82
2021/09/22 10:02:28;;;;;;;;;38.75;33.50;;;;;17.18;53.34;102564.22;5056914;28;45548;-80
2021/09/22 10:04:54;;;;;;;;;29.25;26.25;;;;;17.21;53.57;102560.88;5066007;28;45412;-78
2021/09/22 10:07:20;;;;;;;;;35.00;30.25;;;;;17.29;52.93;102567.34;5058897;28;45573;-80
2021/09/22 10:09:46;;;;;;;;;27.25;26.50;;;;;17.28;52.91;102551.56;5057910;28;45999;-80
2021/09/22 10:12:13;;;;;;;;;31.50;29.00;;;;;17.26;52.78;102541.03;5057145;28;45316;-80
2021/09/22 10:14:40;;;;;;;;;26.00;25.00;;;;;17.38;52.51;102560.72;5053937;27;45440;-80
2021/09/22 10:17:07;;;;;;;;;27.50;25.50;;;;;17.37;52.12;102554.63;5054540;28;45555;-78
2021/09/22 10:19:33;;;;;;;;;28.25;25.25;;;;;17.45;52.20;102555.84;5054976;28;46191;-78
2021/09/22 10:22:00;;;;;;;;;28.25;25.50;;;;;17.45;52.18;102542.75;5055479;28;45823;-78
2021/09/22 10:24:25;;;;;;;;;27.25;23.50;;;;;17.49;52.13;102546.41;5054455;28;45686;-78
2021/09/22 10:26:51;;;;;;;;;27.75;25.00;;;;;17.46;51.89;102522.69;5055974;28;45769;-80
2021/09/22 10:29:19;;;;;;;;;26.25;22.25;;;;;17.58;51.33;102535.44;5064535;28;45251;-89
2021/09/22 10:31:45;;;;;;;;;28.00;24.50;;;;;17.60;51.34;102534.66;5055477;28;45345;-87
2021/09/22 10:34:35;;;;;;;;;28.50;26.00;;;;;17.66;50.42;102525.25;5057797;28;44750;-83
2021/09/22 10:37:04;;;;;;;;;26.25;20.25;;;;;17.69;51.16;102528.03;5057036;28;45501;-84
2021/09/22 10:39:36;;;;;;;;;32.25;29.50;;;;;17.69;51.08;102515.84;5057714;28;45534;-83
2021/09/22 10:42:22;;;;;;;;;29.75;22.25;;;;;17.69;50.35;102509.69;5056174;28;45797;-80
2021/09/22 10:44:47;;;;;;;;;24.00;19.75;;;;;17.68;50.57;102489.56;5056773;28;45390;-80
2021/09/22 10:47:26;;;;;;;;;20.75;20.00;;;;;17.78;48.78;102495.28;5055634;28;45631;-79
2021/09/22 10:49:52;;;;;;;;;21.00;18.25;;;;;17.78;49.41;102483.88;5056459;28;45985;-81
2021/09/22 10:52:37;;;;;;;;;23.00;17.75;;;;;17.88;48.79;102493.91;5056883;28;45420;-80
2021/09/22 10:55:16;;;;;;;;;22.50;19.75;;;;;17.93;49.18;102495.00;5056207;28;45518;-78
2021/09/22 10:57:44;;;;;;;;;22.75;21.25;;;;;17.96;49.01;102486.38;5055612;28;45215;-79
2021/09/22 11:00:12;;;;;;;;;22.75;17.00;;;;;17.98;48.75;102495.22;5059308;28;46027;-89
2021/09/22 11:02:49;;;;;;;;;19.00;16.50;;;;;18.03;48.26;102485.81;5059883;28;45484;-80
2021/09/22 11:05:34;;;;;;;;;19.00;17.25;;;;;18.05;47.94;102488.53;5062989;28;45485;-81
2021/09/22 11:08:08;;;;;;;;;17.75;14.50;;;;;18.07;48.18;102484.25;5062838;28;45452;-82
2021/09/22 11:10:52;;;;;;;;;14.75;12.75;;;;;18.07;47.85;102477.25;5061929;28;45427;-84